createdAt,value
2018-01-07T00:00:23.245Z,8.87
2018-01-07T00:02:50.755Z,6.87
2018-01-07T00:05:18.280Z,7.83
2018-01-07T00:07:45.766Z,8.27
2018-01-07T00:10:14.042Z,7.20
2018-01-07T00:12:42.302Z,8.17
2018-01-07T00:15:09.798Z,7.47
2018-01-07T00:17:37.293Z,7.07
2018-01-07T00:20:04.796Z,7.73
2018-01-07T00:22:33.047Z,9.33
2018-01-07T00:25:00.547Z,10.80
2018-01-07T00:27:28.052Z,6.47
2018-01-07T00:29:55.540Z,9.93
2018-01-07T00:32:23.802Z,10.20
2018-01-07T00:34:51.306Z,10.33
2018-01-07T00:37:18.802Z,12.33
2018-01-07T00:39:46.257Z,9.73
2018-01-07T00:42:13.756Z,7.30
2018-01-07T00:44:42.021Z,9.10
2018-01-07T00:47:10.229Z,9.93
2018-01-07T00:49:37.738Z,8.40
2018-01-07T00:52:05.188Z,7.37
2018-01-07T00:54:32.648Z,12.13
2018-01-07T00:57:00.103Z,7.67
2018-01-07T00:59:27.597Z,8.47
2018-01-07T01:01:55.818Z,9.80
2018-01-07T01:04:23.280Z,8.63
2018-01-07T01:06:50.727Z,12.33
2018-01-07T01:09:18.179Z,7.97
2018-01-07T01:11:46.404Z,9.87
2018-01-07T01:16:48.455Z,9.30
2018-01-07T01:19:15.899Z,9.27
2018-01-07T01:21:43.355Z,10.17
2018-01-07T01:24:10.808Z,9.03
2018-01-07T01:26:38.288Z,8.60
2018-01-07T01:29:05.802Z,8.40
2018-01-07T01:31:33.264Z,7.90
2018-01-07T01:34:00.716Z,7.00
2018-01-07T01:36:28.179Z,7.03
2018-01-07T01:38:55.649Z,7.60
2018-01-07T01:41:23.100Z,8.17
2018-01-07T01:46:24.412Z,8.07
2018-01-07T01:48:51.860Z,7.73
2018-01-07T01:51:19.316Z,7.50
2018-01-07T01:53:46.768Z,6.63
2018-01-07T01:56:14.226Z,7.50
2018-01-07T01:58:41.680Z,8.40
2018-01-07T02:01:09.139Z,7.97
2018-01-07T02:03:36.598Z,9.37
2018-01-07T02:06:04.060Z,7.23
2018-01-07T02:08:31.507Z,8.23
2018-01-07T02:10:58.964Z,8.47
2018-01-07T02:13:26.424Z,8.30
2018-01-07T02:15:53.883Z,7.20
2018-01-07T02:18:21.336Z,6.73
2018-01-07T02:20:48.800Z,9.13
2018-01-07T02:23:16.252Z,8.37
2018-01-07T02:25:43.707Z,13.23
2018-01-07T02:28:11.176Z,13.40
2018-01-07T02:30:38.640Z,11.20
2018-01-07T02:33:06.108Z,10.70
2018-01-07T02:35:34.324Z,9.03
2018-01-07T02:38:01.788Z,9.83
2018-01-07T02:40:29.231Z,9.33
2018-01-07T02:42:56.699Z,10.50
2018-01-07T02:45:24.151Z,6.63
2018-01-07T02:47:51.608Z,10.33
2018-01-07T02:50:19.060Z,7.10
2018-01-07T02:52:46.527Z,6.03
2018-01-07T02:55:14.011Z,7.60
2018-01-07T02:57:41.480Z,7.40
2018-01-07T03:00:08.926Z,7.00
2018-01-07T03:02:36.392Z,8.13
2018-01-07T03:05:03.844Z,7.40
2018-01-07T03:07:31.338Z,8.33
2018-01-07T03:09:59.556Z,6.43
2018-01-07T03:12:27.015Z,7.73
2018-01-07T03:14:54.465Z,7.40
2018-01-07T03:17:21.983Z,7.00
2018-01-07T03:19:50.207Z,9.83
2018-01-07T03:22:17.660Z,7.37
2018-01-07T03:24:45.108Z,6.00
2018-01-07T03:27:12.568Z,8.20
2018-01-07T03:29:40.015Z,8.13
2018-01-07T03:32:07.492Z,6.17
2018-01-07T03:34:34.942Z,5.90
2018-01-07T03:37:02.395Z,10.20
2018-01-07T03:39:29.851Z,10.37
2018-01-07T03:41:57.305Z,7.43
2018-01-07T03:44:24.764Z,6.60
2018-01-07T03:46:52.209Z,6.97
2018-01-07T03:49:19.675Z,7.17
2018-01-07T03:51:47.123Z,6.97
2018-01-07T03:54:14.592Z,6.70
2018-01-07T03:56:42.048Z,7.63
2018-01-07T03:59:09.511Z,9.17
2018-01-07T04:01:36.960Z,4.90
2018-01-07T04:04:05.251Z,5.00
2018-01-07T04:06:32.700Z,6.30
2018-01-07T04:09:00.163Z,5.03
2018-01-07T04:11:27.612Z,7.00
2018-01-07T04:13:55.081Z,7.80
2018-01-07T04:16:22.537Z,6.30
2018-01-07T04:18:49.995Z,6.47
2018-01-07T04:21:17.448Z,5.07
2018-01-07T04:23:44.908Z,5.30
2018-01-07T04:26:12.359Z,4.87
2018-01-07T04:28:39.827Z,6.63
2018-01-07T04:31:07.282Z,5.13
2018-01-07T04:33:34.748Z,5.93
2018-01-07T04:36:02.245Z,5.10
2018-01-07T04:38:29.665Z,7.40
2018-01-07T04:40:57.108Z,6.40
2018-01-07T04:43:24.580Z,6.57
2018-01-07T04:45:52.036Z,6.53
2018-01-07T04:48:20.248Z,6.43
2018-01-07T04:50:48.486Z,7.00
2018-01-07T04:53:15.944Z,7.73
2018-01-07T04:55:43.403Z,8.30
2018-01-07T04:58:10.861Z,7.53
2018-01-07T05:00:38.314Z,8.97
2018-01-07T05:03:05.772Z,11.47
2018-01-07T05:05:33.233Z,6.87
2018-01-07T05:08:00.702Z,8.90
2018-01-07T05:10:28.156Z,8.57
2018-01-07T05:12:55.607Z,8.30
2018-01-07T05:15:23.067Z,7.97
2018-01-07T05:17:50.520Z,8.90
2018-01-07T05:20:18.010Z,9.43
2018-01-07T05:22:45.464Z,7.70
2018-01-07T05:25:12.932Z,6.70
2018-01-07T05:27:41.147Z,7.37
2018-01-07T05:30:08.608Z,5.70
2018-01-07T05:32:36.052Z,7.57
2018-01-07T05:35:03.508Z,7.27
2018-01-07T05:37:30.975Z,6.73
2018-01-07T05:39:58.435Z,6.23
2018-01-07T05:42:25.876Z,6.53
2018-01-07T05:44:53.344Z,7.43
2018-01-07T05:47:20.795Z,8.17
2018-01-07T05:49:48.260Z,7.57
2018-01-07T05:52:15.704Z,7.07
2018-01-07T05:54:43.167Z,9.80
2018-01-07T05:57:10.616Z,6.37
2018-01-07T05:59:38.072Z,9.07
2018-01-07T06:02:05.546Z,8.60
2018-01-07T06:04:33.003Z,10.13
2018-01-07T06:07:00.479Z,14.33
2018-01-07T06:09:27.939Z,12.07
2018-01-07T06:11:55.398Z,12.53
2018-01-07T06:14:22.856Z,13.20
2018-01-07T06:16:50.319Z,10.13
2018-01-07T06:19:17.826Z,11.87
2018-01-07T06:21:45.256Z,15.17
2018-01-07T06:24:12.709Z,12.63
2018-01-07T06:26:40.164Z,11.80
2018-01-07T06:29:07.630Z,14.23
2018-01-07T06:31:35.084Z,11.93
2018-01-07T06:34:02.541Z,13.27
2018-01-07T06:36:30.017Z,13.40
2018-01-07T06:38:58.227Z,12.83
2018-01-07T06:41:25.688Z,11.70
2018-01-07T06:43:53.144Z,14.30
2018-01-07T06:46:20.615Z,12.00
2018-01-07T06:48:48.076Z,12.87
2018-01-07T06:51:15.540Z,9.00
2018-01-07T06:53:43.008Z,12.00
2018-01-07T06:56:10.472Z,12.30
2018-01-07T06:58:37.928Z,12.40
2018-01-07T07:01:05.388Z,12.20
2018-01-07T07:03:32.843Z,14.50
2018-01-07T07:06:00.303Z,14.37
2018-01-07T07:08:27.760Z,11.63
2018-01-07T07:10:55.222Z,12.60
2018-01-07T07:13:22.677Z,12.20
2018-01-07T07:15:50.158Z,22.97
2018-01-07T07:18:18.379Z,15.03
2018-01-07T07:20:46.609Z,13.33
2018-01-07T07:23:14.840Z,13.97
2018-01-07T07:25:42.292Z,11.77
2018-01-07T07:28:09.752Z,13.80
2018-01-07T07:30:37.203Z,10.70
2018-01-07T07:33:04.675Z,12.80
2018-01-07T07:35:32.892Z,11.17
2018-01-07T07:38:00.356Z,13.07
2018-01-07T07:40:27.852Z,12.30
2018-01-07T07:42:55.324Z,15.60
2018-01-07T07:45:22.779Z,12.60
2018-01-07T07:47:50.248Z,13.20
2018-01-07T07:50:17.704Z,14.03
2018-01-07T07:52:45.172Z,18.37
2018-01-07T07:55:12.625Z,12.73
2018-01-07T07:57:40.085Z,13.33
2018-01-07T08:00:07.587Z,12.33
2018-01-07T08:02:35.019Z,11.77
2018-01-07T08:05:03.237Z,11.30
2018-01-07T08:07:30.704Z,11.73
2018-01-07T08:09:58.172Z,13.87
2018-01-07T08:12:26.023Z,13.27
2018-01-07T08:14:53.680Z,14.07
2018-01-07T08:17:21.156Z,12.70
2018-01-07T08:19:48.656Z,13.33
2018-01-07T08:22:16.127Z,12.13
2018-01-07T08:24:43.583Z,14.30
2018-01-07T08:27:11.026Z,13.07
2018-01-07T08:29:39.259Z,13.50
2018-01-07T08:32:06.723Z,10.30
2018-01-07T08:34:34.520Z,11.90
2018-01-07T08:37:02.079Z,13.30
2018-01-07T08:39:30.322Z,13.07
2018-01-07T08:41:57.951Z,13.30
2018-01-07T08:44:25.423Z,12.37
2018-01-07T08:46:52.890Z,12.20
2018-01-07T08:49:20.356Z,13.10
2018-01-07T08:51:47.815Z,13.47
2018-01-07T08:54:15.281Z,11.90
2018-01-07T08:56:42.857Z,13.50
2018-01-07T08:59:10.320Z,12.40
2018-01-07T09:01:38.544Z,13.73
2018-01-07T09:04:06.013Z,12.20
2018-01-07T09:06:33.490Z,10.00
2018-01-07T09:09:01.391Z,13.33
2018-01-07T09:11:29.613Z,18.10
2018-01-07T09:13:57.080Z,13.10
2018-01-07T09:16:24.551Z,14.17
2018-01-07T09:18:52.024Z,16.23
2018-01-07T09:21:20.248Z,12.53
2018-01-07T09:23:47.715Z,13.90
2018-01-07T09:26:15.184Z,12.83
2018-01-07T09:28:42.649Z,14.63
2018-01-07T09:31:10.160Z,14.50
2018-01-07T09:33:37.640Z,16.17
2018-01-07T09:36:05.100Z,17.93
2018-01-07T09:38:32.590Z,14.47
2018-01-07T09:41:00.057Z,15.80
2018-01-07T09:43:28.333Z,18.87
2018-01-07T09:45:56.576Z,15.40
2018-01-07T09:48:24.046Z,13.80
2018-01-07T09:50:51.535Z,16.40
2018-01-07T09:53:19.747Z,15.57
2018-01-07T09:55:47.229Z,16.20
2018-01-07T09:58:14.696Z,16.30
2018-01-07T10:00:42.181Z,16.80
2018-01-07T10:03:09.644Z,15.50
2018-01-07T10:05:37.908Z,17.10
2018-01-07T10:08:06.144Z,15.07
2018-01-07T10:10:33.645Z,14.43
2018-01-07T10:13:01.111Z,15.77
2018-01-07T10:15:29.345Z,20.03
2018-01-07T10:17:56.805Z,16.83
2018-01-07T10:20:24.271Z,15.83
2018-01-07T10:22:51.748Z,16.70
2018-01-07T10:25:19.215Z,14.97
2018-01-07T10:27:47.441Z,17.70
2018-01-07T10:30:14.910Z,16.57
2018-01-07T10:32:42.391Z,14.80
2018-01-07T10:35:09.868Z,14.23
2018-01-07T10:37:37.609Z,15.80
2018-01-07T10:40:05.108Z,15.90
2018-01-07T10:42:32.635Z,17.53
2018-01-07T10:45:00.168Z,13.30
2018-01-07T10:47:27.680Z,13.67
2018-01-07T10:49:55.196Z,15.50
2018-01-07T10:52:22.674Z,16.53
2018-01-07T10:54:50.131Z,16.13
2018-01-07T10:57:17.606Z,15.57
2018-01-07T10:59:45.195Z,15.40
2018-01-07T11:02:19.040Z,16.33
2018-01-07T11:04:46.536Z,18.40
2018-01-07T11:07:14.011Z,17.13
2018-01-07T11:09:42.281Z,14.67
2018-01-07T11:12:13.100Z,15.83
2018-01-07T11:14:40.687Z,17.70
2018-01-07T11:17:09.090Z,13.83
2018-01-07T11:19:36.583Z,13.33
2018-01-07T11:22:04.074Z,15.83
2018-01-07T11:24:32.350Z,14.40
2018-01-07T11:26:59.853Z,15.07
2018-01-07T11:29:27.345Z,22.40
2018-01-07T11:31:54.836Z,14.00
2018-01-07T11:34:23.101Z,17.60
2018-01-07T11:36:50.610Z,13.93
2018-01-07T11:39:18.117Z,15.07
2018-01-07T11:41:45.696Z,15.57
2018-01-07T11:44:13.147Z,14.13
2018-01-07T11:46:41.440Z,17.27
2018-01-07T11:49:08.933Z,19.63
2018-01-07T11:51:36.486Z,19.53
2018-01-07T11:54:03.964Z,16.20
2018-01-07T11:56:32.188Z,17.63
2018-01-07T11:58:59.878Z,15.13
2018-01-07T12:01:27.642Z,13.90
2018-01-07T12:03:55.188Z,17.03
2018-01-07T12:06:22.756Z,18.10
2018-01-07T12:08:50.367Z,15.30
2018-01-07T12:11:17.868Z,13.47
2018-01-07T12:13:45.437Z,17.07
2018-01-07T12:16:13.104Z,17.77
2018-01-07T12:18:40.584Z,18.20
2018-01-07T12:21:08.562Z,19.57
2018-01-07T12:23:36.129Z,21.10
2018-01-07T12:26:04.254Z,20.57
2018-01-07T12:28:32.117Z,17.80
2018-01-07T12:30:59.673Z,20.77
2018-01-07T12:33:27.162Z,20.57
2018-01-07T12:35:54.670Z,19.13
2018-01-07T12:38:23.028Z,17.37
2018-01-07T12:40:50.622Z,16.60
2018-01-07T12:43:18.231Z,18.80
2018-01-07T12:45:45.791Z,20.97
2018-01-07T12:48:13.592Z,20.30
2018-01-07T12:50:41.882Z,19.80
2018-01-07T12:53:09.421Z,17.00
2018-01-07T12:55:37.745Z,18.83
2018-01-07T12:58:05.283Z,18.07
2018-01-07T13:00:32.940Z,19.27
2018-01-07T13:03:00.530Z,17.80
2018-01-07T13:05:28.073Z,16.37
2018-01-07T13:07:56.379Z,18.00
2018-01-07T13:10:23.901Z,17.60
2018-01-07T13:12:52.231Z,14.73
2018-01-07T13:15:19.752Z,13.70
2018-01-07T13:17:47.274Z,16.33
2018-01-07T13:20:14.827Z,14.97
2018-01-07T13:22:42.395Z,15.83
2018-01-07T13:25:09.919Z,18.50
2018-01-07T13:27:37.444Z,15.50
2018-01-07T13:30:04.981Z,16.87
2018-01-07T13:32:32.515Z,20.03
2018-01-07T13:35:00.055Z,19.00
2018-01-07T13:37:28.211Z,16.70
2018-01-07T13:39:55.724Z,16.47
2018-01-07T13:42:23.243Z,19.13
2018-01-07T13:44:54.632Z,16.70
2018-01-07T13:47:22.187Z,16.87
2018-01-07T13:49:50.628Z,18.00
2018-01-07T13:52:18.187Z,14.07
2018-01-07T13:54:45.722Z,15.67
2018-01-07T13:57:13.289Z,17.87
2018-01-07T13:59:40.834Z,17.50
2018-01-07T14:02:09.132Z,16.93
2018-01-07T14:04:36.670Z,19.50
2018-01-07T14:07:04.990Z,15.73
2018-01-07T14:09:32.765Z,16.67
2018-01-07T14:12:00.269Z,16.93
2018-01-07T14:14:28.553Z,17.90
2018-01-07T14:16:56.851Z,17.93
2018-01-07T14:21:58.448Z,22.23
2018-01-07T14:24:26.031Z,21.20
2018-01-07T14:26:53.514Z,17.03
2018-01-07T14:29:21.821Z,14.40
2018-01-07T14:31:49.373Z,18.53
2018-01-07T14:34:16.912Z,16.30
2018-01-07T14:36:45.195Z,16.07
2018-01-07T14:39:13.518Z,14.60
2018-01-07T14:41:41.149Z,21.63
2018-01-07T14:44:08.753Z,16.60
2018-01-07T14:46:36.286Z,19.00
2018-01-07T14:49:03.870Z,18.77
2018-01-07T14:51:31.421Z,24.83
2018-01-07T14:54:02.878Z,18.20
2018-01-07T14:56:30.479Z,16.20
2018-01-07T14:58:58.758Z,22.53
2018-01-07T15:01:26.282Z,18.13
2018-01-07T15:06:27.866Z,18.33
2018-01-07T15:08:55.633Z,19.37
2018-01-07T15:11:23.174Z,20.93
2018-01-07T15:13:51.509Z,19.93
2018-01-07T15:16:19.070Z,23.37
2018-01-07T15:18:46.607Z,21.63
2018-01-07T15:21:14.797Z,22.63
2018-01-07T15:23:42.327Z,23.27
2018-01-07T15:26:09.830Z,24.97
2018-01-07T15:28:37.467Z,20.37
2018-01-07T15:31:05.078Z,23.30
2018-01-07T15:33:32.644Z,22.47
2018-01-07T15:36:00.189Z,21.90
2018-01-07T15:38:27.728Z,20.03
2018-01-07T15:40:56.236Z,18.73
2018-01-07T15:43:23.911Z,15.60
2018-01-07T15:45:51.465Z,21.63
2018-01-07T15:48:19.309Z,20.37
2018-01-07T15:50:46.890Z,18.13
2018-01-07T15:53:14.463Z,24.80
2018-01-07T15:55:42.808Z,19.00
2018-01-07T15:58:10.380Z,19.87
2018-01-07T16:00:37.903Z,25.17
2018-01-07T16:03:05.788Z,25.47
2018-01-07T16:05:33.828Z,24.63
2018-01-07T16:08:01.410Z,18.70
2018-01-07T16:10:28.882Z,19.80
2018-01-07T16:12:56.366Z,18.37
2018-01-07T16:15:23.996Z,21.10
2018-01-07T16:17:51.486Z,24.20
2018-01-07T16:20:19.058Z,23.67
2018-01-07T16:22:46.627Z,20.27
2018-01-07T16:25:14.212Z,23.93
2018-01-07T16:27:42.554Z,20.70
2018-01-07T16:30:10.062Z,21.40
2018-01-07T16:32:37.654Z,25.17
2018-01-07T16:35:05.228Z,28.43
2018-01-07T16:37:32.763Z,22.47
2018-01-07T16:40:00.292Z,23.77
2018-01-07T16:42:27.853Z,22.33
2018-01-07T16:44:55.453Z,21.33
2018-01-07T16:47:23.054Z,25.50
2018-01-07T16:49:51.405Z,20.30
2018-01-07T16:52:18.989Z,24.93
2018-01-07T16:54:47.317Z,24.13
2018-01-07T16:57:14.924Z,20.77
2018-01-07T16:59:43.284Z,21.03
2018-01-07T17:02:10.862Z,22.30
2018-01-07T17:04:52.082Z,22.70
2018-01-07T17:10:22.452Z,24.00
2018-01-07T17:12:50.004Z,30.90
2018-01-07T17:15:17.992Z,31.93
2018-01-07T17:17:45.501Z,27.00
2018-01-07T17:20:23.906Z,29.20
2018-01-07T17:22:52.505Z,32.37
2018-01-07T17:25:23.220Z,31.87
2018-01-07T17:27:52.175Z,26.40
2018-01-07T17:30:19.724Z,27.57
2018-01-07T17:32:47.283Z,31.07
2018-01-07T17:35:14.840Z,29.53
2018-01-07T17:37:54.155Z,26.33
2018-01-07T17:40:21.689Z,24.70
2018-01-07T17:42:49.288Z,33.50
2018-01-07T17:45:16.823Z,30.30
2018-01-07T17:47:44.351Z,29.20
2018-01-07T17:50:12.698Z,27.07
2018-01-07T17:52:40.227Z,30.60
2018-01-07T17:55:07.738Z,30.70
2018-01-07T17:57:35.281Z,29.20
2018-01-07T18:00:02.793Z,26.00
2018-01-07T18:02:30.315Z,28.30
2018-01-07T18:04:58.507Z,28.77
2018-01-07T18:07:29.492Z,27.60
2018-01-07T18:09:57.078Z,27.00
2018-01-07T18:12:24.707Z,31.47
2018-01-07T18:14:52.285Z,25.33
2018-01-07T18:17:19.859Z,30.83
2018-01-07T18:19:47.473Z,23.50
2018-01-07T18:22:15.032Z,29.40
2018-01-07T18:24:42.579Z,29.13
2018-01-07T18:27:10.114Z,27.17
2018-01-07T18:29:37.660Z,29.73
2018-01-07T18:32:05.192Z,24.60
2018-01-07T18:34:32.739Z,27.20
2018-01-07T18:37:00.280Z,27.90
2018-01-07T18:39:27.810Z,31.23
2018-01-07T18:41:55.338Z,25.87
2018-01-07T18:44:22.890Z,31.80
2018-01-07T18:46:50.426Z,26.40
2018-01-07T18:49:18.097Z,31.60
2018-01-07T18:51:45.821Z,28.93
2018-01-07T18:54:13.464Z,27.77
2018-01-07T18:56:41.030Z,30.60
2018-01-07T18:59:08.621Z,26.47
2018-01-07T19:01:36.190Z,33.03
2018-01-07T19:04:03.760Z,27.77
2018-01-07T19:06:31.262Z,25.70
2018-01-07T19:08:58.788Z,28.20
2018-01-07T19:11:26.295Z,32.23
2018-01-07T19:13:53.821Z,23.80
2018-01-07T19:16:21.322Z,30.20
2018-01-07T19:18:49.682Z,26.63
2018-01-07T19:21:17.198Z,31.50
2018-01-07T19:23:44.896Z,28.83
2018-01-07T19:26:12.424Z,30.40
2018-01-07T19:28:40.583Z,40.33
2018-01-07T19:31:08.113Z,43.40
2018-01-07T19:33:36.399Z,39.23
2018-01-07T19:36:04.685Z,34.83
2018-01-07T19:38:32.207Z,42.87
2018-01-07T19:40:59.728Z,31.63
2018-01-07T19:43:27.221Z,30.43
2018-01-07T19:45:54.740Z,36.53
2018-01-07T19:48:22.251Z,36.70
2018-01-07T19:50:49.778Z,37.80
2018-01-07T19:53:17.286Z,30.90
2018-01-07T19:55:45.568Z,32.77
2018-01-07T19:58:13.883Z,23.83
2018-01-07T20:00:41.400Z,30.50
2018-01-07T20:03:09.675Z,28.57
2018-01-07T20:05:37.956Z,28.10
2018-01-07T20:08:06.229Z,23.73
2018-01-07T20:10:34.516Z,24.93
2018-01-07T20:13:02.031Z,21.27
2018-01-07T20:15:29.624Z,21.13
2018-01-07T20:17:57.896Z,26.07
2018-01-07T20:20:26.187Z,25.97
2018-01-07T20:22:53.711Z,19.83
2018-01-07T20:25:21.275Z,17.73
2018-01-07T20:27:48.818Z,18.83
2018-01-07T20:30:16.322Z,21.30
2018-01-07T20:32:45.294Z,19.83
2018-01-07T20:35:13.105Z,17.90
2018-01-07T20:37:52.405Z,22.87
2018-01-07T20:40:22.627Z,21.30
2018-01-07T20:42:50.937Z,22.97
2018-01-07T20:45:18.478Z,24.80
2018-01-07T20:47:46.004Z,22.00
2018-01-07T20:50:13.524Z,29.37
2018-01-07T20:52:41.117Z,33.00
2018-01-07T20:55:08.633Z,32.23
2018-01-07T20:57:36.152Z,40.70
2018-01-07T21:00:04.443Z,32.50
2018-01-07T21:02:32.195Z,30.80
2018-01-07T21:05:00.546Z,32.27
2018-01-07T21:07:28.072Z,32.27
2018-01-07T21:09:55.578Z,26.60
2018-01-07T21:12:23.093Z,24.43
2018-01-07T21:14:50.603Z,39.20
2018-01-07T21:17:18.894Z,36.63
2018-01-07T21:19:46.415Z,33.80
2018-01-07T21:22:14.049Z,36.43
2018-01-07T21:24:44.412Z,39.90
2018-01-07T21:27:13.068Z,34.53
2018-01-07T21:29:40.649Z,37.93
2018-01-07T21:32:08.239Z,41.00
2018-01-07T21:34:36.585Z,43.67
2018-01-07T21:37:04.189Z,33.00
2018-01-07T21:39:31.748Z,34.90
2018-01-07T21:41:59.329Z,34.47
2018-01-07T21:44:26.894Z,40.83
2018-01-07T21:46:54.487Z,29.30
2018-01-07T21:49:22.178Z,31.03
2018-01-07T21:51:49.756Z,31.33
2018-01-07T21:54:17.323Z,35.83
2018-01-07T21:56:44.877Z,29.93
2018-01-07T21:59:12.442Z,31.80
2018-01-07T22:01:51.774Z,32.03
2018-01-07T22:04:31.225Z,30.27
2018-01-07T22:07:04.497Z,32.17
2018-01-07T22:09:32.081Z,32.23
2018-01-07T22:11:59.657Z,40.77
2018-01-07T22:14:27.238Z,31.57
2018-01-07T22:16:55.003Z,34.67
2018-01-07T22:19:22.589Z,33.70
2018-01-07T22:21:50.161Z,32.77
2018-01-07T22:24:17.725Z,34.37
2018-01-07T22:26:45.284Z,34.87
2018-01-07T22:29:12.853Z,28.53
2018-01-07T22:31:40.414Z,29.50
2018-01-07T22:34:07.982Z,37.97
2018-01-07T22:36:35.570Z,35.63
2018-01-07T22:39:03.202Z,32.73
2018-01-07T22:41:30.809Z,36.43
2018-01-07T22:43:59.172Z,38.17
2018-01-07T22:46:26.733Z,22.70
2018-01-07T22:48:54.335Z,24.60
2018-01-07T22:51:22.652Z,25.30
2018-01-07T22:53:50.258Z,31.10
2018-01-07T22:56:18.617Z,22.10
2018-01-07T22:58:46.208Z,24.70
2018-01-07T23:01:13.803Z,26.93
2018-01-07T23:03:41.402Z,25.67
2018-01-07T23:06:08.973Z,24.47
2018-01-07T23:08:37.306Z,22.20
2018-01-07T23:11:04.864Z,21.87
2018-01-07T23:13:32.447Z,22.97
2018-01-07T23:16:00.026Z,17.83
2018-01-07T23:18:27.616Z,19.67
2018-01-07T23:20:55.171Z,16.13
2018-01-07T23:23:22.885Z,16.13
2018-01-07T23:25:50.485Z,22.60
2018-01-07T23:28:18.814Z,20.23
2018-01-07T23:30:46.399Z,23.47
2018-01-07T23:33:14.045Z,22.37
2018-01-07T23:35:41.675Z,19.37
2018-01-07T23:38:09.255Z,24.40
2018-01-07T23:40:36.901Z,25.10
2018-01-07T23:43:04.548Z,31.97
2018-01-07T23:45:32.209Z,14.07
2018-01-07T23:48:00.536Z,27.93
2018-01-07T23:50:28.203Z,27.77
2018-01-07T23:52:55.807Z,24.27
2018-01-07T23:55:23.371Z,30.70
2018-01-07T23:57:50.945Z,23.67
